Time;durP1;ratioP1;P1;durP2;ratioP2;P2;SDS_P1;SDS_P2;PMS_P1;PMS_P2;Temp;Humidity;BMP_temperature;BMP_pressure;BME280_temperature;BME280_humidity;BME280_pressure;Samples;Min_cycle;Max_cycle;Signal;HPM_P1;HPM_P2
2022/08/20 00:00:13;;;;;;;28.20;17.27;;;;;;;;;;4942165;28;20023;-67
2022/08/20 00:02:40;;;;;;;26.70;18.27;;;;;;;;;;4941066;28;20043;-68
2022/08/20 00:05:06;;;;;;;27.73;17.30;;;;;;;;;;4941298;28;20027;-69
2022/08/20 00:07:32;;;;;;;27.83;17.75;;;;;;;;;;4943931;28;20164;-68
2022/08/20 00:09:58;;;;;;;32.53;19.55;;;;;;;;;;4940629;28;20496;-67
2022/08/20 00:12:24;;;;;;;30.27;18.13;;;;;;;;;;4943183;28;20043;-67
2022/08/20 00:14:50;;;;;;;30.30;16.85;;;;;;;;;;4942587;28;20031;-67
2022/08/20 00:17:16;;;;;;;26.85;15.55;;;;;;;;;;4941138;28;20126;-69
2022/08/20 00:19:42;;;;;;;26.55;14.63;;;;;;;;;;4941711;28;20208;-67
2022/08/20 00:22:08;;;;;;;27.55;14.55;;;;;;;;;;4941797;28;20042;-68
2022/08/20 00:24:34;;;;;;;23.40;13.52;;;;;;;;;;4941819;28;20047;-68
2022/08/20 00:27:01;;;;;;;23.45;13.13;;;;;;;;;;4945237;28;20422;-67
2022/08/20 00:29:27;;;;;;;24.70;13.88;;;;;;;;;;5004743;28;20096;-68
2022/08/20 00:31:53;;;;;;;26.10;13.88;;;;;;;;;;4941297;28;20698;-67
2022/08/20 00:34:19;;;;;;;22.45;13.55;;;;;;;;;;4950659;28;20058;-67
2022/08/20 00:36:45;;;;;;;20.38;12.93;;;;;;;;;;4956940;28;20062;-67
2022/08/20 00:39:11;;;;;;;21.73;12.40;;;;;;;;;;4945047;28;20047;-67
2022/08/20 00:41:38;;;;;;;27.17;13.20;;;;;;;;;;4943735;28;20067;-68
2022/08/20 00:44:03;;;;;;;28.30;12.80;;;;;;;;;;4944502;28;20081;-67
2022/08/20 00:46:30;;;;;;;29.73;13.55;;;;;;;;;;4926467;28;20500;-67
2022/08/20 00:48:57;;;;;;;27.42;12.70;;;;;;;;;;4944964;28;20138;-67
2022/08/20 00:51:26;;;;;;;27.60;13.73;;;;;;;;;;4943856;28;20027;-68
2022/08/20 00:53:56;;;;;;;27.73;14.80;;;;;;;;;;4943971;28;20028;-68
2022/08/20 00:56:22;;;;;;;25.98;14.32;;;;;;;;;;4943587;28;20027;-69
2022/08/20 00:58:49;;;;;;;29.02;14.18;;;;;;;;;;4943612;28;20031;-69
2022/08/20 01:01:16;;;;;;;27.40;14.57;;;;;;;;;;4944285;28;20076;-68
2022/08/20 01:03:42;;;;;;;30.15;14.75;;;;;;;;;;4945088;28;20028;-68
2022/08/20 01:06:10;;;;;;;31.08;15.77;;;;;;;;;;4947470;28;20575;-68
2022/08/20 01:08:37;;;;;;;33.80;16.00;;;;;;;;;;4944851;28;20035;-68
2022/08/20 01:11:11;;;;;;;34.17;17.40;;;;;;;;;;4940254;28;20070;-68
2022/08/20 01:13:38;;;;;;;29.80;16.77;;;;;;;;;;4943511;28;20111;-68
2022/08/20 01:16:08;;;;;;;40.33;19.13;;;;;;;;;;4945682;28;20430;-68
2022/08/20 01:18:35;;;;;;;28.98;15.32;;;;;;;;;;4944769;28;20484;-68
2022/08/20 01:21:03;;;;;;;35.55;15.88;;;;;;;;;;4940943;28;20492;-69
2022/08/20 01:23:48;;;;;;;39.75;16.10;;;;;;;;;;4941850;28;20039;-68
2022/08/20 01:26:16;;;;;;;32.92;16.30;;;;;;;;;;4941957;28;20126;-68
2022/08/20 01:28:51;;;;;;;28.88;14.48;;;;;;;;;;4944458;28;20052;-68
2022/08/20 01:31:19;;;;;;;35.45;16.13;;;;;;;;;;4944614;28;20057;-68
2022/08/20 01:33:45;;;;;;;28.08;14.98;;;;;;;;;;4940436;28;20019;-68
2022/08/20 01:36:12;;;;;;;34.03;15.32;;;;;;;;;;4944974;28;20043;-68
2022/08/20 01:38:38;;;;;;;28.25;15.05;;;;;;;;;;4943518;28;20031;-68
2022/08/20 01:41:07;;;;;;;26.23;14.82;;;;;;;;;;4946150;28;20063;-68
2022/08/20 01:43:33;;;;;;;25.73;14.32;;;;;;;;;;4949863;28;20062;-68
2022/08/20 01:46:00;;;;;;;27.38;13.55;;;;;;;;;;4948301;28;20539;-68
2022/08/20 01:48:27;;;;;;;27.20;13.30;;;;;;;;;;4944010;28;20158;-68
2022/08/20 01:50:58;;;;;;;26.02;14.35;;;;;;;;;;4946291;28;20028;-68
2022/08/20 01:53:27;;;;;;;33.40;14.05;;;;;;;;;;4946869;28;20110;-68
2022/08/20 01:55:54;;;;;;;27.85;13.75;;;;;;;;;;4946338;28;20027;-68
2022/08/20 01:58:20;;;;;;;25.23;13.73;;;;;;;;;;4944725;28;20028;-68
2022/08/20 02:00:46;;;;;;;28.58;13.45;;;;;;;;;;4947209;28;20035;-68
2022/08/20 02:03:12;;;;;;;22.35;12.63;;;;;;;;;;4945090;28;20057;-68
2022/08/20 02:05:38;;;;;;;21.25;13.20;;;;;;;;;;4947526;28;20038;-69
2022/08/20 02:08:05;;;;;;;25.02;12.73;;;;;;;;;;4945976;28;20038;-68
2022/08/20 02:10:31;;;;;;;24.80;12.60;;;;;;;;;;4963330;28;20057;-69
2022/08/20 02:12:57;;;;;;;32.40;14.13;;;;;;;;;;5017252;28;20472;-69
2022/08/20 02:15:24;;;;;;;25.63;12.93;;;;;;;;;;4950992;29;20027;-68
2022/08/20 02:17:50;;;;;;;26.58;14.02;;;;;;;;;;4950683;28;20476;-69
2022/08/20 02:20:18;;;;;;;29.73;13.75;;;;;;;;;;4951248;28;20042;-68
2022/08/20 02:22:46;;;;;;;25.23;13.13;;;;;;;;;;4945789;28;20062;-67
2022/08/20 02:25:13;;;;;;;25.05;12.93;;;;;;;;;;4948949;28;20034;-70
2022/08/20 02:27:41;;;;;;;24.02;11.43;;;;;;;;;;4950254;28;20035;-69
2022/08/20 02:30:10;;;;;;;21.40;11.40;;;;;;;;;;4952039;28;20031;-68
2022/08/20 02:32:36;;;;;;;28.05;11.35;;;;;;;;;;4949401;28;20034;-68
2022/08/20 02:35:06;;;;;;;20.77;10.10;;;;;;;;;;4949915;28;20035;-68
2022/08/20 02:37:32;;;;;;;20.80;9.45;;;;;;;;;;4949866;28;20106;-66
2022/08/20 02:39:58;;;;;;;17.15;8.90;;;;;;;;;;4950120;28;20093;-67
2022/08/20 02:42:25;;;;;;;21.17;8.43;;;;;;;;;;4948443;28;20031;-68
2022/08/20 02:44:51;;;;;;;17.67;8.23;;;;;;;;;;4947095;28;20061;-68
2022/08/20 02:47:17;;;;;;;17.90;8.35;;;;;;;;;;5023480;28;20178;-68
2022/08/20 02:49:44;;;;;;;25.83;8.73;;;;;;;;;;5027736;28;20047;-67
2022/08/20 02:52:10;;;;;;;24.17;10.45;;;;;;;;;;5023666;28;20037;-68
2022/08/20 02:54:36;;;;;;;17.63;9.10;;;;;;;;;;5026798;28;20056;-67
2022/08/20 02:57:03;;;;;;;22.00;9.25;;;;;;;;;;5026772;28;20509;-67
2022/08/20 02:59:29;;;;;;;18.38;8.75;;;;;;;;;;5028084;28;20044;-67
2022/08/20 03:01:55;;;;;;;23.58;8.93;;;;;;;;;;5021153;28;20033;-68
2022/08/20 03:04:21;;;;;;;25.65;8.52;;;;;;;;;;5023542;28;20056;-68
2022/08/20 03:06:47;;;;;;;24.13;8.75;;;;;;;;;;5054396;28;20057;-68
2022/08/20 03:09:13;;;;;;;24.20;8.73;;;;;;;;;;5029321;28;20036;-68
2022/08/20 03:11:39;;;;;;;22.27;8.20;;;;;;;;;;5027486;28;20034;-67
2022/08/20 03:14:06;;;;;;;20.15;8.13;;;;;;;;;;5026990;28;20057;-67
2022/08/20 03:16:32;;;;;;;20.40;8.55;;;;;;;;;;5027822;28;20040;-67
2022/08/20 03:18:58;;;;;;;14.93;7.75;;;;;;;;;;5025268;28;20029;-67
2022/08/20 03:21:25;;;;;;;21.08;7.60;;;;;;;;;;5023908;28;20061;-68
2022/08/20 03:23:51;;;;;;;21.77;7.63;;;;;;;;;;5025731;28;20376;-67
2022/08/20 03:26:17;;;;;;;18.40;7.07;;;;;;;;;;5028107;28;20036;-67
2022/08/20 03:28:43;;;;;;;14.73;6.38;;;;;;;;;;5058912;28;20079;-67
2022/08/20 03:31:09;;;;;;;20.58;6.55;;;;;;;;;;5024767;28;20261;-68
2022/08/20 03:33:38;;;;;;;17.88;7.60;;;;;;;;;;5022481;28;20125;-68
2022/08/20 03:36:04;;;;;;;15.30;6.82;;;;;;;;;;5026617;28;20494;-67
2022/08/20 03:38:30;;;;;;;15.23;7.07;;;;;;;;;;5025289;28;20056;-68
2022/08/20 03:40:56;;;;;;;18.52;7.88;;;;;;;;;;5022273;28;20037;-68
2022/08/20 03:43:23;;;;;;;17.80;6.50;;;;;;;;;;5025733;28;20038;-68
2022/08/20 03:45:50;;;;;;;28.40;8.32;;;;;;;;;;4992408;28;20051;-68
2022/08/20 03:48:17;;;;;;;13.48;6.00;;;;;;;;;;4941836;28;20140;-68
2022/08/20 03:50:44;;;;;;;13.02;5.95;;;;;;;;;;4941097;28;20443;-68
2022/08/20 03:53:11;;;;;;;18.67;5.90;;;;;;;;;;4939273;28;20062;-68
2022/08/20 03:55:37;;;;;;;17.25;6.40;;;;;;;;;;4940956;28;20106;-68
2022/08/20 03:58:05;;;;;;;18.15;6.72;;;;;;;;;;4941414;28;20035;-68
2022/08/20 04:00:31;;;;;;;13.60;5.88;;;;;;;;;;4941907;28;20062;-68
2022/08/20 04:02:59;;;;;;;22.13;6.38;;;;;;;;;;4942069;28;20058;-67
2022/08/20 04:05:25;;;;;;;13.30;6.63;;;;;;;;;;4943638;28;20101;-68
2022/08/20 04:07:51;;;;;;;15.27;6.30;;;;;;;;;;4941599;28;20460;-69
2022/08/20 04:10:18;;;;;;;14.75;6.63;;;;;;;;;;4944435;28;20137;-68
2022/08/20 04:12:44;;;;;;;16.73;6.60;;;;;;;;;;4943102;28;20041;-68
2022/08/20 04:15:11;;;;;;;15.60;6.40;;;;;;;;;;4941929;28;20055;-68
2022/08/20 04:17:40;;;;;;;18.05;6.53;;;;;;;;;;4926944;28;20050;-67
2022/08/20 04:20:07;;;;;;;17.85;6.93;;;;;;;;;;4943198;28;20039;-67
2022/08/20 04:22:33;;;;;;;17.98;7.25;;;;;;;;;;4941834;28;20435;-67
2022/08/20 04:24:59;;;;;;;15.75;6.05;;;;;;;;;;4930829;28;20047;-67
2022/08/20 04:27:25;;;;;;;17.75;7.55;;;;;;;;;;4941862;28;20357;-67
2022/08/20 04:29:51;;;;;;;20.27;6.57;;;;;;;;;;4940095;28;20023;-68
2022/08/20 04:32:17;;;;;;;15.07;6.50;;;;;;;;;;4941367;28;20043;-68
2022/08/20 04:34:43;;;;;;;18.92;8.13;;;;;;;;;;4942847;28;20134;-68
2022/08/20 04:37:10;;;;;;;21.17;7.00;;;;;;;;;;4939724;28;20125;-67
2022/08/20 04:39:36;;;;;;;18.27;7.55;;;;;;;;;;4940390;28;20043;-69
2022/08/20 04:42:02;;;;;;;20.73;7.80;;;;;;;;;;4942018;28;20035;-68
2022/08/20 04:44:28;;;;;;;22.60;7.10;;;;;;;;;;4942738;28;20043;-68
2022/08/20 04:46:55;;;;;;;19.73;7.30;;;;;;;;;;4941050;28;20187;-68
2022/08/20 04:49:23;;;;;;;18.10;6.47;;;;;;;;;;4928853;28;21146;-68
2022/08/20 04:51:50;;;;;;;26.52;9.30;;;;;;;;;;4942007;28;20068;-67
2022/08/20 04:54:16;;;;;;;25.23;7.43;;;;;;;;;;4940031;28;20034;-68
2022/08/20 04:56:42;;;;;;;14.93;5.45;;;;;;;;;;4941504;28;20489;-68
2022/08/20 04:59:08;;;;;;;18.80;5.47;;;;;;;;;;4955451;28;20071;-68
2022/08/20 05:01:34;;;;;;;17.02;5.40;;;;;;;;;;4940009;28;20043;-68
2022/08/20 05:04:00;;;;;;;25.27;7.45;;;;;;;;;;4943348;28;20027;-68
2022/08/20 05:06:28;;;;;;;21.08;6.18;;;;;;;;;;4940476;28;20108;-69
2022/08/20 05:08:56;;;;;;;21.13;6.07;;;;;;;;;;4941348;28;20027;-68
2022/08/20 05:11:23;;;;;;;16.48;5.90;;;;;;;;;;4941525;28;20069;-69
2022/08/20 05:13:51;;;;;;;25.85;5.72;;;;;;;;;;4942364;28;20031;-68
2022/08/20 05:16:18;;;;;;;17.90;5.07;;;;;;;;;;4948126;28;20496;-68
2022/08/20 05:18:45;;;;;;;15.05;4.70;;;;;;;;;;4948149;28;20042;-68
2022/08/20 05:21:11;;;;;;;15.93;5.28;;;;;;;;;;4945841;28;20130;-69
2022/08/20 05:23:41;;;;;;;17.27;5.07;;;;;;;;;;4947044;28;20088;-69
2022/08/20 05:26:08;;;;;;;19.33;5.70;;;;;;;;;;4945687;28;20061;-68
2022/08/20 05:28:37;;;;;;;23.58;5.20;;;;;;;;;;4947090;28;20016;-68
2022/08/20 05:31:05;;;;;;;18.95;5.50;;;;;;;;;;4947289;28;20399;-68
2022/08/20 05:33:32;;;;;;;23.10;6.05;;;;;;;;;;4947579;28;20077;-68
2022/08/20 05:35:58;;;;;;;18.42;5.60;;;;;;;;;;4948172;28;20480;-68
2022/08/20 05:38:26;;;;;;;23.77;5.80;;;;;;;;;;4942715;28;20031;-67
2022/08/20 05:40:52;;;;;;;16.38;4.93;;;;;;;;;;4946196;28;20030;-67
2022/08/20 05:43:19;;;;;;;15.77;4.45;;;;;;;;;;4949983;28;20054;-68
2022/08/20 05:45:45;;;;;;;28.58;6.20;;;;;;;;;;4949594;28;20054;-68
2022/08/20 05:48:16;;;;;;;16.65;4.47;;;;;;;;;;4962419;28;20039;-68
2022/08/20 05:50:43;;;;;;;13.80;4.47;;;;;;;;;;4947535;28;20055;-67
2022/08/20 05:53:09;;;;;;;19.25;4.20;;;;;;;;;;4949239;28;20113;-68
2022/08/20 05:55:36;;;;;;;17.17;4.55;;;;;;;;;;4949142;28;20536;-68
2022/08/20 05:58:03;;;;;;;16.02;3.85;;;;;;;;;;4947668;28;20142;-69
2022/08/20 06:00:29;;;;;;;18.58;4.22;;;;;;;;;;4948347;28;20158;-68
2022/08/20 06:05:41;;;;;;;11.50;3.55;;;;;;;;;;4949806;28;20178;-68
2022/08/20 06:08:07;;;;;;;12.75;3.80;;;;;;;;;;4948374;28;20539;-69
2022/08/20 06:10:34;;;;;;;14.18;3.63;;;;;;;;;;4960188;28;20059;-69
2022/08/20 06:13:01;;;;;;;20.75;3.60;;;;;;;;;;4949785;28;20069;-69
2022/08/20 06:15:27;;;;;;;13.13;3.50;;;;;;;;;;4948337;28;20035;-69
2022/08/20 06:17:53;;;;;;;14.52;2.97;;;;;;;;;;4948903;28;20043;-68
2022/08/20 06:20:19;;;;;;;15.38;3.00;;;;;;;;;;4950099;28;20444;-68
2022/08/20 06:22:45;;;;;;;16.15;4.00;;;;;;;;;;4950243;28;20032;-68
2022/08/20 06:25:11;;;;;;;14.35;3.42;;;;;;;;;;4953216;28;20038;-69
2022/08/20 06:27:38;;;;;;;14.85;3.45;;;;;;;;;;4948185;28;20033;-69
2022/08/20 06:30:04;;;;;;;12.82;3.22;;;;;;;;;;4947135;28;20028;-68
2022/08/20 06:32:32;;;;;;;12.50;2.65;;;;;;;;;;4946801;28;20063;-68
2022/08/20 06:35:00;;;;;;;10.32;2.47;;;;;;;;;;4944919;28;20043;-67
2022/08/20 06:37:27;;;;;;;10.50;2.72;;;;;;;;;;4949252;28;20057;-68
2022/08/20 06:39:53;;;;;;;12.77;2.70;;;;;;;;;;4946286;28;20043;-67
2022/08/20 06:42:20;;;;;;;13.48;2.78;;;;;;;;;;4949209;28;20137;-67
2022/08/20 06:44:48;;;;;;;11.55;2.75;;;;;;;;;;4965003;28;20055;-68
2022/08/20 06:47:16;;;;;;;12.30;2.83;;;;;;;;;;4949900;28;20511;-67
2022/08/20 06:49:42;;;;;;;12.80;2.80;;;;;;;;;;4950435;28;20046;-68
2022/08/20 06:52:08;;;;;;;12.73;2.50;;;;;;;;;;4948843;29;20035;-68
2022/08/20 06:54:34;;;;;;;10.73;2.75;;;;;;;;;;4949338;28;20019;-68
2022/08/20 06:57:01;;;;;;;10.93;2.70;;;;;;;;;;4947646;28;20484;-68
2022/08/20 06:59:27;;;;;;;14.93;2.70;;;;;;;;;;4945330;28;20046;-69
2022/08/20 07:01:56;;;;;;;10.95;2.65;;;;;;;;;;4947478;28;20114;-70
2022/08/20 07:04:25;;;;;;;10.85;2.30;;;;;;;;;;4972761;28;20033;-68
2022/08/20 07:06:52;;;;;;;12.00;2.40;;;;;;;;;;4946932;28;20028;-69
2022/08/20 07:09:18;;;;;;;13.77;2.60;;;;;;;;;;4946032;28;20130;-68
2022/08/20 07:11:44;;;;;;;11.73;2.22;;;;;;;;;;4947059;28;20059;-68
2022/08/20 07:14:11;;;;;;;12.20;2.65;;;;;;;;;;4948934;28;20057;-68
2022/08/20 07:16:37;;;;;;;16.27;2.97;;;;;;;;;;4948034;29;20161;-68
2022/08/20 07:19:03;;;;;;;12.73;2.63;;;;;;;;;;4946980;28;20425;-68
2022/08/20 07:21:29;;;;;;;14.98;2.58;;;;;;;;;;4948423;28;20058;-68
2022/08/20 07:23:55;;;;;;;14.80;3.00;;;;;;;;;;4947420;28;20477;-68
2022/08/20 07:26:22;;;;;;;14.95;2.58;;;;;;;;;;4945755;28;20104;-68
2022/08/20 07:28:48;;;;;;;10.32;2.50;;;;;;;;;;4950837;28;20023;-68
2022/08/20 07:33:59;;;;;;;9.88;2.30;;;;;;;;;;4949079;28;20069;-68
2022/08/20 07:36:25;;;;;;;12.07;2.47;;;;;;;;;;4941478;28;20069;-69
2022/08/20 07:38:51;;;;;;;12.60;2.47;;;;;;;;;;4945749;28;20039;-68
2022/08/20 07:41:18;;;;;;;16.33;2.38;;;;;;;;;;4942898;28;20043;-69
2022/08/20 07:43:45;;;;;;;11.85;2.63;;;;;;;;;;4945423;28;20431;-68
2022/08/20 07:46:11;;;;;;;11.55;2.40;;;;;;;;;;4945821;28;20059;-69
2022/08/20 07:48:40;;;;;;;10.40;1.98;;;;;;;;;;4947177;29;20067;-69
2022/08/20 07:51:07;;;;;;;14.05;3.25;;;;;;;;;;4946594;29;20023;-69
2022/08/20 07:53:35;;;;;;;14.48;2.38;;;;;;;;;;4945258;29;20030;-69
2022/08/20 07:56:02;;;;;;;11.18;2.22;;;;;;;;;;4942104;28;20027;-69
2022/08/20 07:58:29;;;;;;;10.45;2.47;;;;;;;;;;4946711;29;20019;-69
2022/08/20 08:00:55;;;;;;;15.48;2.17;;;;;;;;;;5011609;28;20038;-68
2022/08/20 08:03:21;;;;;;;13.20;2.15;;;;;;;;;;4945347;29;20031;-68
2022/08/20 08:05:49;;;;;;;9.82;2.40;;;;;;;;;;4946386;29;20062;-69
2022/08/20 08:08:18;;;;;;;13.85;3.10;;;;;;;;;;4945392;29;20424;-68
2022/08/20 08:10:46;;;;;;;11.52;2.38;;;;;;;;;;4945439;29;20035;-68
2022/08/20 08:13:12;;;;;;;11.55;1.70;;;;;;;;;;4945570;29;20110;-68
2022/08/20 08:15:40;;;;;;;12.90;2.20;;;;;;;;;;4946621;29;20031;-69
2022/08/20 08:18:13;;;;;;;10.30;2.30;;;;;;;;;;4945305;29;20076;-69
2022/08/20 08:20:41;;;;;;;8.43;1.80;;;;;;;;;;4945953;29;20034;-69
2022/08/20 08:23:10;;;;;;;8.70;1.90;;;;;;;;;;4945741;29;20126;-69
2022/08/20 08:25:37;;;;;;;9.35;2.38;;;;;;;;;;5009846;28;20032;-69
2022/08/20 08:28:04;;;;;;;8.27;1.90;;;;;;;;;;4944965;29;20047;-69
2022/08/20 08:30:30;;;;;;;10.55;1.90;;;;;;;;;;4945620;29;20109;-69
2022/08/20 08:35:45;;;;;;;10.45;2.33;;;;;;;;;;4946411;29;20070;-67
2022/08/20 08:38:12;;;;;;;9.88;2.25;;;;;;;;;;4946397;29;20039;-69
2022/08/20 08:40:39;;;;;;;8.30;2.10;;;;;;;;;;4944665;29;20121;-68
2022/08/20 08:43:05;;;;;;;11.05;2.40;;;;;;;;;;5014072;28;20122;-68
2022/08/20 08:45:42;;;;;;;13.25;2.35;;;;;;;;;;4948417;28;20116;-67
2022/08/20 08:48:10;;;;;;;11.40;2.05;;;;;;;;;;4947245;28;20101;-67
2022/08/20 08:50:36;;;;;;;9.27;2.03;;;;;;;;;;4948410;28;20023;-67
2022/08/20 08:53:04;;;;;;;13.07;2.08;;;;;;;;;;4949423;28;20499;-67
2022/08/20 08:55:31;;;;;;;7.45;2.10;;;;;;;;;;5014153;28;20488;-68
2022/08/20 08:57:58;;;;;;;8.65;2.10;;;;;;;;;;4948951;29;20039;-69
2022/08/20 09:00:27;;;;;;;14.25;2.30;;;;;;;;;;4949197;29;20038;-69
2022/08/20 09:03:08;;;;;;;10.50;2.38;;;;;;;;;;5008708;28;20039;-69
2022/08/20 09:05:39;;;;;;;8.13;2.63;;;;;;;;;;4946250;28;20035;-69
2022/08/20 09:08:08;;;;;;;7.35;2.10;;;;;;;;;;4947736;28;20396;-69
2022/08/20 09:10:34;;;;;;;8.95;2.45;;;;;;;;;;4947985;28;20023;-67
2022/08/20 09:13:00;;;;;;;10.50;2.55;;;;;;;;;;4947609;28;20035;-67
2022/08/20 09:15:27;;;;;;;8.23;2.25;;;;;;;;;;4948497;28;20570;-67
2022/08/20 09:17:53;;;;;;;10.25;2.58;;;;;;;;;;4961507;28;20038;-67
2022/08/20 09:20:19;;;;;;;7.22;2.17;;;;;;;;;;4948947;28;20044;-67
2022/08/20 09:22:45;;;;;;;11.25;2.47;;;;;;;;;;4948926;28;20102;-67
2022/08/20 09:25:11;;;;;;;9.77;2.90;;;;;;;;;;4948649;28;20035;-68
2022/08/20 09:27:37;;;;;;;9.23;2.58;;;;;;;;;;4945499;28;20473;-67
2022/08/20 09:30:04;;;;;;;11.23;2.75;;;;;;;;;;4948376;29;20035;-66
2022/08/20 09:32:30;;;;;;;9.02;2.42;;;;;;;;;;4946574;29;20081;-67
2022/08/20 09:34:57;;;;;;;12.18;2.60;;;;;;;;;;4948038;28;20035;-68
2022/08/20 09:37:24;;;;;;;9.27;2.22;;;;;;;;;;4948956;28;20488;-68
2022/08/20 09:39:50;;;;;;;12.50;2.83;;;;;;;;;;4947136;28;20411;-67
2022/08/20 09:42:21;;;;;;;9.07;2.42;;;;;;;;;;4948824;28;20043;-67
2022/08/20 09:44:48;;;;;;;12.13;2.85;;;;;;;;;;4947601;28;20078;-67
2022/08/20 09:47:14;;;;;;;13.43;3.22;;;;;;;;;;4946692;28;20586;-67
2022/08/20 09:49:41;;;;;;;13.43;2.28;;;;;;;;;;4948548;29;20031;-67
2022/08/20 09:52:08;;;;;;;7.45;2.42;;;;;;;;;;4945651;29;20480;-67
2022/08/20 09:54:34;;;;;;;7.88;2.33;;;;;;;;;;4948492;28;20492;-68
2022/08/20 09:57:02;;;;;;;10.80;2.35;;;;;;;;;;4948899;29;20039;-67
2022/08/20 09:59:29;;;;;;;11.35;2.30;;;;;;;;;;4948083;29;20489;-66
2022/08/20 10:01:55;;;;;;;9.10;2.47;;;;;;;;;;4950980;29;20027;-66
2022/08/20 10:04:21;;;;;;;11.00;2.40;;;;;;;;;;5018123;28;20515;-66
2022/08/20 10:06:47;;;;;;;12.57;2.40;;;;;;;;;;4945962;29;20023;-67
2022/08/20 10:09:14;;;;;;;12.13;2.70;;;;;;;;;;4948156;28;20043;-67
2022/08/20 10:11:41;;;;;;;12.38;2.22;;;;;;;;;;4951395;28;20035;-68
2022/08/20 10:14:08;;;;;;;11.30;2.05;;;;;;;;;;4948946;28;20058;-69
2022/08/20 10:16:34;;;;;;;9.13;3.03;;;;;;;;;;4947043;28;20032;-67
2022/08/20 10:19:00;;;;;;;13.18;2.33;;;;;;;;;;4931971;28;20039;-67
2022/08/20 10:21:26;;;;;;;13.63;2.78;;;;;;;;;;4933326;28;20521;-67
2022/08/20 10:23:52;;;;;;;15.15;2.67;;;;;;;;;;4950579;28;20439;-67
2022/08/20 10:26:18;;;;;;;12.30;2.67;;;;;;;;;;4950473;28;20481;-67
2022/08/20 10:28:44;;;;;;;9.50;2.40;;;;;;;;;;4950874;29;20023;-66
2022/08/20 10:31:11;;;;;;;10.90;2.60;;;;;;;;;;4932493;28;20054;-66
2022/08/20 10:33:38;;;;;;;7.82;1.90;;;;;;;;;;4948510;28;20110;-67
2022/08/20 10:36:12;;;;;;;12.27;2.72;;;;;;;;;;4950774;28;20035;-66
2022/08/20 10:38:38;;;;;;;9.55;2.60;;;;;;;;;;4950371;28;20517;-67
2022/08/20 10:41:04;;;;;;;15.18;2.63;;;;;;;;;;4951007;29;20066;-66
2022/08/20 10:43:30;;;;;;;11.70;2.50;;;;;;;;;;4951059;29;20031;-67
2022/08/20 10:45:56;;;;;;;12.07;2.92;;;;;;;;;;4950915;29;20112;-66
2022/08/20 10:48:23;;;;;;;10.00;2.42;;;;;;;;;;4949959;29;20047;-68
2022/08/20 10:50:49;;;;;;;11.27;2.63;;;;;;;;;;4965309;28;20028;-68
2022/08/20 10:53:16;;;;;;;14.40;3.00;;;;;;;;;;4949293;28;20047;-66
2022/08/20 10:55:42;;;;;;;13.85;2.50;;;;;;;;;;4951657;28;20035;-67
2022/08/20 10:58:08;;;;;;;12.93;2.80;;;;;;;;;;4949102;28;20463;-67
2022/08/20 11:00:34;;;;;;;10.82;2.97;;;;;;;;;;4949931;29;20467;-67
2022/08/20 11:03:00;;;;;;;11.10;2.60;;;;;;;;;;4965626;28;20037;-67
2022/08/20 11:05:26;;;;;;;10.23;2.70;;;;;;;;;;4949232;28;20481;-67
2022/08/20 11:07:53;;;;;;;9.93;2.55;;;;;;;;;;4948880;28;20068;-67
2022/08/20 11:10:20;;;;;;;8.98;1.92;;;;;;;;;;4948289;28;20059;-67
2022/08/20 11:12:46;;;;;;;15.30;3.20;;;;;;;;;;4947496;29;20038;-67
2022/08/20 11:15:12;;;;;;;9.77;2.40;;;;;;;;;;4948742;28;20031;-67
2022/08/20 11:17:40;;;;;;;9.82;2.55;;;;;;;;;;4947726;28;20114;-67
2022/08/20 11:20:06;;;;;;;11.45;2.55;;;;;;;;;;4963502;28;20036;-66
2022/08/20 11:22:33;;;;;;;11.38;2.53;;;;;;;;;;4963157;28;20088;-67
2022/08/20 11:24:59;;;;;;;11.27;2.78;;;;;;;;;;4949671;28;20031;-67
2022/08/20 11:27:26;;;;;;;10.00;2.40;;;;;;;;;;4948156;28;20039;-67
2022/08/20 11:29:52;;;;;;;8.43;2.30;;;;;;;;;;4948059;28;20035;-67
2022/08/20 11:32:19;;;;;;;11.23;2.63;;;;;;;;;;4945477;28;20043;-67
2022/08/20 11:34:45;;;;;;;14.13;2.65;;;;;;;;;;4946674;28;20024;-68
2022/08/20 11:37:12;;;;;;;10.30;2.53;;;;;;;;;;4949486;28;20085;-68
2022/08/20 11:39:38;;;;;;;10.63;2.83;;;;;;;;;;4949149;28;20035;-68
2022/08/20 11:42:04;;;;;;;14.25;2.40;;;;;;;;;;4943703;28;20156;-67
2022/08/20 11:44:30;;;;;;;9.93;2.65;;;;;;;;;;4959158;28;20089;-68
2022/08/20 11:47:02;;;;;;;11.95;2.33;;;;;;;;;;4944192;29;20051;-68
2022/08/20 11:49:28;;;;;;;13.32;2.72;;;;;;;;;;4943227;28;20043;-67
2022/08/20 11:51:54;;;;;;;9.93;2.75;;;;;;;;;;4946003;28;20023;-68
2022/08/20 11:54:20;;;;;;;10.65;2.50;;;;;;;;;;4945229;28;20114;-68
2022/08/20 11:56:46;;;;;;;10.23;2.90;;;;;;;;;;4945178;29;20042;-68
2022/08/20 11:59:13;;;;;;;10.02;2.72;;;;;;;;;;4943854;29;20035;-68
2022/08/20 12:01:39;;;;;;;16.10;3.10;;;;;;;;;;4943342;29;20035;-68
2022/08/20 12:04:05;;;;;;;11.93;2.75;;;;;;;;;;4943854;29;20066;-68
2022/08/20 12:06:32;;;;;;;11.20;2.75;;;;;;;;;;4945018;29;20126;-68
2022/08/20 12:08:58;;;;;;;9.57;2.88;;;;;;;;;;4928905;28;20067;-67
2022/08/20 12:11:24;;;;;;;14.30;2.85;;;;;;;;;;4943316;28;20019;-67
2022/08/20 12:13:50;;;;;;;11.27;2.80;;;;;;;;;;4944780;29;20036;-67
2022/08/20 12:16:18;;;;;;;11.82;2.75;;;;;;;;;;5009303;28;20470;-67
2022/08/20 12:18:44;;;;;;;10.43;3.13;;;;;;;;;;4949229;28;20047;-67
2022/08/20 12:21:10;;;;;;;12.68;3.05;;;;;;;;;;4948456;28;20755;-67
2022/08/20 12:23:36;;;;;;;11.02;3.35;;;;;;;;;;4942480;28;20038;-67
2022/08/20 12:26:03;;;;;;;17.08;2.88;;;;;;;;;;4943336;29;20096;-67
2022/08/20 12:28:29;;;;;;;14.75;3.40;;;;;;;;;;4943751;28;20046;-68
2022/08/20 12:30:55;;;;;;;13.98;2.75;;;;;;;;;;5010757;28;20118;-68
2022/08/20 12:33:22;;;;;;;13.15;3.30;;;;;;;;;;4942033;29;20085;-68
2022/08/20 12:35:48;;;;;;;9.98;2.63;;;;;;;;;;4943302;29;20112;-68
2022/08/20 12:38:15;;;;;;;17.65;2.67;;;;;;;;;;4946619;29;20099;-68
2022/08/20 12:40:41;;;;;;;17.13;3.20;;;;;;;;;;4942263;29;20065;-68
2022/08/20 12:43:07;;;;;;;15.02;3.72;;;;;;;;;;4942109;28;20039;-68
2022/08/20 12:45:34;;;;;;;13.63;3.75;;;;;;;;;;4942259;29;20035;-68
2022/08/20 12:48:07;;;;;;;11.68;3.38;;;;;;;;;;4943987;29;20058;-67
2022/08/20 12:50:34;;;;;;;13.98;3.00;;;;;;;;;;4943341;28;20114;-68
2022/08/20 12:53:01;;;;;;;10.18;3.47;;;;;;;;;;4942864;29;20266;-68
2022/08/20 12:55:27;;;;;;;11.52;3.17;;;;;;;;;;4942459;29;20054;-69
2022/08/20 12:57:55;;;;;;;12.90;2.95;;;;;;;;;;4955531;28;20092;-69
2022/08/20 13:00:26;;;;;;;14.90;3.38;;;;;;;;;;4944731;29;20043;-68
2022/08/20 13:02:53;;;;;;;13.05;3.28;;;;;;;;;;4943814;28;20454;-69
2022/08/20 13:05:20;;;;;;;11.77;3.10;;;;;;;;;;4943377;29;20050;-68
2022/08/20 13:07:46;;;;;;;15.80;3.30;;;;;;;;;;4944196;29;20043;-68
2022/08/20 13:10:21;;;;;;;14.05;2.75;;;;;;;;;;4944357;28;20364;-68
2022/08/20 13:12:47;;;;;;;12.13;2.95;;;;;;;;;;4942658;29;20036;-68
2022/08/20 13:15:13;;;;;;;8.60;2.63;;;;;;;;;;4944154;29;20019;-68
2022/08/20 13:17:40;;;;;;;14.85;3.78;;;;;;;;;;4942361;28;20044;-68
2022/08/20 13:20:08;;;;;;;9.57;3.30;;;;;;;;;;4944309;29;20117;-69
2022/08/20 13:22:34;;;;;;;10.88;3.15;;;;;;;;;;4944401;28;20093;-67
2022/08/20 13:25:00;;;;;;;12.27;3.53;;;;;;;;;;4943233;29;20036;-67
2022/08/20 13:27:26;;;;;;;11.73;2.72;;;;;;;;;;4944082;29;20301;-67
2022/08/20 13:29:53;;;;;;;14.90;3.38;;;;;;;;;;4941328;29;20089;-66
2022/08/20 13:32:20;;;;;;;8.85;2.72;;;;;;;;;;4944420;28;20046;-67
2022/08/20 13:34:47;;;;;;;15.70;2.80;;;;;;;;;;4939990;29;20032;-67
2022/08/20 13:37:17;;;;;;;12.35;2.75;;;;;;;;;;4932878;28;20035;-67
2022/08/20 13:39:43;;;;;;;14.68;2.92;;;;;;;;;;4947403;29;20043;-68
2022/08/20 13:42:10;;;;;;;13.07;3.13;;;;;;;;;;4945478;29;20043;-67
2022/08/20 13:44:36;;;;;;;12.15;2.60;;;;;;;;;;4943571;29;20046;-68
2022/08/20 13:47:16;;;;;;;13.18;3.13;;;;;;;;;;4947155;28;20136;-67
2022/08/20 13:49:42;;;;;;;13.05;2.83;;;;;;;;;;4946490;29;20035;-67
2022/08/20 13:52:08;;;;;;;8.60;2.42;;;;;;;;;;4948177;28;20165;-67
2022/08/20 13:54:34;;;;;;;12.50;3.20;;;;;;;;;;4943359;29;20034;-67
2022/08/20 13:57:04;;;;;;;9.50;2.70;;;;;;;;;;4941147;28;20504;-68
2022/08/20 13:59:30;;;;;;;12.65;2.53;;;;;;;;;;4946288;29;20122;-68
2022/08/20 14:01:56;;;;;;;12.85;2.78;;;;;;;;;;4946214;29;20165;-67
2022/08/20 14:04:22;;;;;;;12.85;2.90;;;;;;;;;;4944092;28;20039;-67
2022/08/20 14:06:48;;;;;;;11.15;2.97;;;;;;;;;;4947276;28;20137;-67
2022/08/20 14:09:14;;;;;;;12.80;3.25;;;;;;;;;;4948126;28;20031;-67
2022/08/20 14:11:41;;;;;;;12.25;2.83;;;;;;;;;;4944388;28;20035;-67
2022/08/20 14:14:07;;;;;;;12.75;2.90;;;;;;;;;;4946103;28;20063;-67
2022/08/20 14:16:33;;;;;;;13.85;3.03;;;;;;;;;;4946251;28;20031;-67
2022/08/20 14:18:59;;;;;;;16.40;3.78;;;;;;;;;;4947688;29;20031;-68
2022/08/20 14:21:25;;;;;;;17.92;3.90;;;;;;;;;;4948108;28;20539;-67
2022/08/20 14:23:51;;;;;;;12.73;3.65;;;;;;;;;;4947603;29;20039;-68
2022/08/20 14:26:17;;;;;;;15.30;3.53;;;;;;;;;;4948368;29;20497;-68
2022/08/20 14:28:43;;;;;;;15.50;3.55;;;;;;;;;;4946891;28;20051;-68
2022/08/20 14:31:09;;;;;;;11.88;2.67;;;;;;;;;;4930879;29;20040;-68
2022/08/20 14:33:35;;;;;;;12.60;3.25;;;;;;;;;;4947549;29;20015;-67